sensor_id;sensor_type;location;lat;lon;timestamp;temperature;humidity
18456;DHT22;9357;49.900;8.208;2022-10-17T00:00:14;16.10;99.90
18456;DHT22;9357;49.900;8.208;2022-10-17T00:01:46;16.10;99.90
18456;DHT22;9357;49.900;8.208;2022-10-17T00:03:19;16.10;99.90
18456;DHT22;9357;49.900;8.208;2022-10-17T00:04:52;16.10;99.90
18456;DHT22;9357;49.900;8.208;2022-10-17T00:06:25;16.00;99.90
18456;DHT22;9357;49.900;8.208;2022-10-17T00:07:57;16.10;99.90
18456;DHT22;9357;49.900;8.208;2022-10-17T00:09:30;16.00;99.90
18456;DHT22;9357;49.900;8.208;2022-10-17T00:11:06;16.00;99.90
18456;DHT22;9357;49.900;8.208;2022-10-17T00:12:38;16.00;99.90
18456;DHT22;9357;49.900;8.208;2022-10-17T00:14:12;15.90;99.90
18456;DHT22;9357;49.900;8.208;2022-10-17T00:15:45;15.90;99.90
18456;DHT22;9357;49.900;8.208;2022-10-17T00:17:16;15.90;99.90
18456;DHT22;9357;49.900;8.208;2022-10-17T00:18:49;15.90;99.90
18456;DHT22;9357;49.900;8.208;2022-10-17T00:20:21;15.90;99.90
18456;DHT22;9357;49.900;8.208;2022-10-17T00:21:54;15.90;99.90
18456;DHT22;9357;49.900;8.208;2022-10-17T00:23:26;16.00;99.90
18456;DHT22;9357;49.900;8.208;2022-10-17T00:25:00;15.90;99.90
18456;DHT22;9357;49.900;8.208;2022-10-17T00:26:32;15.90;99.90
18456;DHT22;9357;49.900;8.208;2022-10-17T00:28:05;16.00;99.90
18456;DHT22;9357;49.900;8.208;2022-10-17T00:29:41;16.00;99.90
18456;DHT22;9357;49.900;8.208;2022-10-17T00:31:14;16.00;99.90
18456;DHT22;9357;49.900;8.208;2022-10-17T00:32:46;16.00;99.90
18456;DHT22;9357;49.900;8.208;2022-10-17T00:34:19;16.10;99.90
18456;DHT22;9357;49.900;8.208;2022-10-17T00:36:02;16.10;99.90
18456;DHT22;9357;49.900;8.208;2022-10-17T00:37:34;16.10;99.90
18456;DHT22;9357;49.900;8.208;2022-10-17T00:39:08;16.10;99.90
18456;DHT22;9357;49.900;8.208;2022-10-17T00:40:40;16.10;99.90
18456;DHT22;9357;49.900;8.208;2022-10-17T00:42:12;16.10;99.90
18456;DHT22;9357;49.900;8.208;2022-10-17T00:43:53;16.10;99.90
18456;DHT22;9357;49.900;8.208;2022-10-17T00:45:29;16.10;99.90
18456;DHT22;9357;49.900;8.208;2022-10-17T00:47:04;16.10;99.90
18456;DHT22;9357;49.900;8.208;2022-10-17T00:48:36;16.00;99.90
18456;DHT22;9357;49.900;8.208;2022-10-17T00:50:09;16.00;99.90
18456;DHT22;9357;49.900;8.208;2022-10-17T00:51:45;16.00;99.90
18456;DHT22;9357;49.900;8.208;2022-10-17T00:53:18;16.00;99.90
18456;DHT22;9357;49.900;8.208;2022-10-17T00:54:53;16.00;99.90
18456;DHT22;9357;49.900;8.208;2022-10-17T00:56:26;16.00;99.90
18456;DHT22;9357;49.900;8.208;2022-10-17T00:58:02;16.10;99.90
18456;DHT22;9357;49.900;8.208;2022-10-17T00:59:37;15.90;99.90
18456;DHT22;9357;49.900;8.208;2022-10-17T01:01:12;16.00;99.90
18456;DHT22;9357;49.900;8.208;2022-10-17T01:02:46;16.00;99.90
18456;DHT22;9357;49.900;8.208;2022-10-17T01:04:19;16.00;99.90
18456;DHT22;9357;49.900;8.208;2022-10-17T01:05:52;16.00;99.90
18456;DHT22;9357;49.900;8.208;2022-10-17T01:07:26;16.10;99.90
18456;DHT22;9357;49.900;8.208;2022-10-17T01:09:02;16.10;99.90
18456;DHT22;9357;49.900;8.208;2022-10-17T01:10:42;16.20;99.90
18456;DHT22;9357;49.900;8.208;2022-10-17T01:12:21;16.20;99.90
18456;DHT22;9357;49.900;8.208;2022-10-17T01:13:57;16.20;99.90
18456;DHT22;9357;49.900;8.208;2022-10-17T01:15:47;16.10;99.90
18456;DHT22;9357;49.900;8.208;2022-10-17T01:17:32;16.10;99.90
18456;DHT22;9357;49.900;8.208;2022-10-17T01:19:22;16.10;99.90
18456;DHT22;9357;49.900;8.208;2022-10-17T01:21:22;16.10;99.90
18456;DHT22;9357;49.900;8.208;2022-10-17T01:23:09;16.10;99.90
18456;DHT22;9357;49.900;8.208;2022-10-17T01:25:15;16.10;99.90
18456;DHT22;9357;49.900;8.208;2022-10-17T01:27:24;16.10;99.90
18456;DHT22;9357;49.900;8.208;2022-10-17T01:29:13;16.10;99.90
18456;DHT22;9357;49.900;8.208;2022-10-17T01:30:57;16.10;99.90
18456;DHT22;9357;49.900;8.208;2022-10-17T01:32:34;16.10;99.90
18456;DHT22;9357;49.900;8.208;2022-10-17T01:34:09;16.00;99.90
18456;DHT22;9357;49.900;8.208;2022-10-17T01:35:51;16.10;99.90
18456;DHT22;9357;49.900;8.208;2022-10-17T01:37:27;16.00;99.90
18456;DHT22;9357;49.900;8.208;2022-10-17T01:39:09;16.00;99.90
18456;DHT22;9357;49.900;8.208;2022-10-17T01:40:48;16.00;99.90
18456;DHT22;9357;49.900;8.208;2022-10-17T01:42:25;16.00;99.90
18456;DHT22;9357;49.900;8.208;2022-10-17T01:44:03;16.00;99.90
18456;DHT22;9357;49.900;8.208;2022-10-17T01:45:42;16.00;99.90
18456;DHT22;9357;49.900;8.208;2022-10-17T01:47:19;16.10;99.90
18456;DHT22;9357;49.900;8.208;2022-10-17T01:48:54;16.00;99.90
18456;DHT22;9357;49.900;8.208;2022-10-17T01:50:31;16.00;99.90
18456;DHT22;9357;49.900;8.208;2022-10-17T01:52:07;16.00;99.90
18456;DHT22;9357;49.900;8.208;2022-10-17T01:53:45;16.10;99.90
18456;DHT22;9357;49.900;8.208;2022-10-17T01:55:22;16.00;99.90
18456;DHT22;9357;49.900;8.208;2022-10-17T01:56:58;16.00;99.90
18456;DHT22;9357;49.900;8.208;2022-10-17T01:58:36;16.00;99.90
18456;DHT22;9357;49.900;8.208;2022-10-17T02:00:16;16.00;99.90
18456;DHT22;9357;49.900;8.208;2022-10-17T02:01:52;16.00;99.90
18456;DHT22;9357;49.900;8.208;2022-10-17T02:03:29;16.10;99.90
18456;DHT22;9357;49.900;8.208;2022-10-17T02:05:03;16.00;99.90
18456;DHT22;9357;49.900;8.208;2022-10-17T02:06:36;16.00;99.90
18456;DHT22;9357;49.900;8.208;2022-10-17T02:08:09;16.00;99.90
18456;DHT22;9357;49.900;8.208;2022-10-17T02:09:42;16.00;99.90
18456;DHT22;9357;49.900;8.208;2022-10-17T02:11:16;16.00;99.90
18456;DHT22;9357;49.900;8.208;2022-10-17T02:12:54;16.00;99.90
18456;DHT22;9357;49.900;8.208;2022-10-17T02:14:38;16.00;99.90
18456;DHT22;9357;49.900;8.208;2022-10-17T02:16:21;16.00;99.90
18456;DHT22;9357;49.900;8.208;2022-10-17T02:18:05;16.00;99.90
18456;DHT22;9357;49.900;8.208;2022-10-17T02:19:54;16.00;99.90
18456;DHT22;9357;49.900;8.208;2022-10-17T02:21:37;16.00;99.90
18456;DHT22;9357;49.900;8.208;2022-10-17T02:23:16;16.00;99.90
18456;DHT22;9357;49.900;8.208;2022-10-17T02:24:58;16.00;99.90
18456;DHT22;9357;49.900;8.208;2022-10-17T02:26:34;16.00;99.90
18456;DHT22;9357;49.900;8.208;2022-10-17T02:28:17;15.90;99.90
18456;DHT22;9357;49.900;8.208;2022-10-17T02:29:56;16.00;99.90
18456;DHT22;9357;49.900;8.208;2022-10-17T02:31:32;15.90;99.90
18456;DHT22;9357;49.900;8.208;2022-10-17T02:33:08;15.90;99.90
18456;DHT22;9357;49.900;8.208;2022-10-17T02:34:45;16.00;99.90
18456;DHT22;9357;49.900;8.208;2022-10-17T02:36:21;15.90;99.90
18456;DHT22;9357;49.900;8.208;2022-10-17T02:37:55;16.00;99.90
18456;DHT22;9357;49.900;8.208;2022-10-17T02:39:29;16.00;99.90
18456;DHT22;9357;49.900;8.208;2022-10-17T02:41:04;15.90;99.90
18456;DHT22;9357;49.900;8.208;2022-10-17T02:42:38;15.90;99.90
18456;DHT22;9357;49.900;8.208;2022-10-17T02:44:13;15.90;99.90
18456;DHT22;9357;49.900;8.208;2022-10-17T02:45:46;15.90;99.90
18456;DHT22;9357;49.900;8.208;2022-10-17T02:47:24;16.00;99.90
18456;DHT22;9357;49.900;8.208;2022-10-17T02:49:00;15.90;99.90
18456;DHT22;9357;49.900;8.208;2022-10-17T02:50:41;15.90;99.90
18456;DHT22;9357;49.900;8.208;2022-10-17T02:52:18;15.90;99.90
18456;DHT22;9357;49.900;8.208;2022-10-17T02:53:57;15.80;99.90
18456;DHT22;9357;49.900;8.208;2022-10-17T02:55:38;15.80;99.90
18456;DHT22;9357;49.900;8.208;2022-10-17T02:57:17;15.80;99.90
18456;DHT22;9357;49.900;8.208;2022-10-17T02:58:53;15.80;99.90
18456;DHT22;9357;49.900;8.208;2022-10-17T03:00:28;15.80;99.90
18456;DHT22;9357;49.900;8.208;2022-10-17T03:02:02;15.80;99.90
18456;DHT22;9357;49.900;8.208;2022-10-17T03:03:35;15.70;99.90
18456;DHT22;9357;49.900;8.208;2022-10-17T03:05:08;15.70;99.90
18456;DHT22;9357;49.900;8.208;2022-10-17T03:06:44;15.80;99.90
18456;DHT22;9357;49.900;8.208;2022-10-17T03:08:18;15.80;99.90
18456;DHT22;9357;49.900;8.208;2022-10-17T03:09:50;15.80;99.90
18456;DHT22;9357;49.900;8.208;2022-10-17T03:11:22;15.80;99.90
18456;DHT22;9357;49.900;8.208;2022-10-17T03:12:55;15.80;99.90
18456;DHT22;9357;49.900;8.208;2022-10-17T03:14:28;15.80;99.90
18456;DHT22;9357;49.900;8.208;2022-10-17T03:16:00;15.80;99.90
18456;DHT22;9357;49.900;8.208;2022-10-17T03:17:32;15.80;99.90
18456;DHT22;9357;49.900;8.208;2022-10-17T03:19:05;15.90;99.90
18456;DHT22;9357;49.900;8.208;2022-10-17T03:20:38;15.80;99.90
18456;DHT22;9357;49.900;8.208;2022-10-17T03:22:12;15.90;99.90
18456;DHT22;9357;49.900;8.208;2022-10-17T03:23:45;15.90;99.90
18456;DHT22;9357;49.900;8.208;2022-10-17T03:25:16;15.80;99.90
18456;DHT22;9357;49.900;8.208;2022-10-17T03:26:49;15.90;99.90
18456;DHT22;9357;49.900;8.208;2022-10-17T03:28:22;15.90;99.90
18456;DHT22;9357;49.900;8.208;2022-10-17T03:29:55;15.80;99.90
18456;DHT22;9357;49.900;8.208;2022-10-17T03:31:28;15.80;99.90
18456;DHT22;9357;49.900;8.208;2022-10-17T03:33:00;15.80;99.90
18456;DHT22;9357;49.900;8.208;2022-10-17T03:34:33;15.90;99.90
18456;DHT22;9357;49.900;8.208;2022-10-17T03:36:06;15.80;99.90
18456;DHT22;9357;49.900;8.208;2022-10-17T03:37:41;15.80;99.90
18456;DHT22;9357;49.900;8.208;2022-10-17T03:39:13;15.90;99.90
18456;DHT22;9357;49.900;8.208;2022-10-17T03:40:53;15.80;99.90
18456;DHT22;9357;49.900;8.208;2022-10-17T03:42:25;15.80;99.90
18456;DHT22;9357;49.900;8.208;2022-10-17T03:43:58;15.80;99.90
18456;DHT22;9357;49.900;8.208;2022-10-17T03:45:31;15.70;99.90
18456;DHT22;9357;49.900;8.208;2022-10-17T03:47:03;15.70;99.90
18456;DHT22;9357;49.900;8.208;2022-10-17T03:48:37;15.70;99.90
18456;DHT22;9357;49.900;8.208;2022-10-17T03:50:10;15.70;99.90
18456;DHT22;9357;49.900;8.208;2022-10-17T03:51:43;15.70;99.90
18456;DHT22;9357;49.900;8.208;2022-10-17T03:53:17;15.70;99.90
18456;DHT22;9357;49.900;8.208;2022-10-17T03:54:50;15.70;99.90
18456;DHT22;9357;49.900;8.208;2022-10-17T03:56:24;15.70;99.90
18456;DHT22;9357;49.900;8.208;2022-10-17T03:57:57;15.70;99.90
18456;DHT22;9357;49.900;8.208;2022-10-17T03:59:29;15.70;99.90
18456;DHT22;9357;49.900;8.208;2022-10-17T04:01:03;15.60;99.90
18456;DHT22;9357;49.900;8.208;2022-10-17T04:02:36;15.60;99.90
18456;DHT22;9357;49.900;8.208;2022-10-17T04:04:09;15.60;99.90
18456;DHT22;9357;49.900;8.208;2022-10-17T04:05:42;15.60;99.90
18456;DHT22;9357;49.900;8.208;2022-10-17T04:07:14;15.60;99.90
18456;DHT22;9357;49.900;8.208;2022-10-17T04:08:49;15.50;99.90
18456;DHT22;9357;49.900;8.208;2022-10-17T04:10:22;15.50;99.90
18456;DHT22;9357;49.900;8.208;2022-10-17T04:11:54;15.50;99.90
18456;DHT22;9357;49.900;8.208;2022-10-17T04:13:28;15.50;99.90
18456;DHT22;9357;49.900;8.208;2022-10-17T04:15:01;15.50;99.90
18456;DHT22;9357;49.900;8.208;2022-10-17T04:16:34;15.50;99.90
18456;DHT22;9357;49.900;8.208;2022-10-17T04:18:06;15.50;99.90
18456;DHT22;9357;49.900;8.208;2022-10-17T04:19:39;15.50;99.90
18456;DHT22;9357;49.900;8.208;2022-10-17T04:21:12;15.50;99.90
18456;DHT22;9357;49.900;8.208;2022-10-17T04:22:45;15.40;99.90
18456;DHT22;9357;49.900;8.208;2022-10-17T04:24:19;15.50;99.90
18456;DHT22;9357;49.900;8.208;2022-10-17T04:25:54;15.50;99.90
18456;DHT22;9357;49.900;8.208;2022-10-17T04:27:27;15.50;99.90
18456;DHT22;9357;49.900;8.208;2022-10-17T04:29:00;15.50;99.90
18456;DHT22;9357;49.900;8.208;2022-10-17T04:30:33;15.50;99.90
18456;DHT22;9357;49.900;8.208;2022-10-17T04:32:05;15.40;99.90
18456;DHT22;9357;49.900;8.208;2022-10-17T04:33:39;15.40;99.90
18456;DHT22;9357;49.900;8.208;2022-10-17T04:35:12;15.40;99.90
18456;DHT22;9357;49.900;8.208;2022-10-17T04:36:44;15.40;99.90
18456;DHT22;9357;49.900;8.208;2022-10-17T04:38:17;15.50;99.90
18456;DHT22;9357;49.900;8.208;2022-10-17T04:39:51;15.40;99.90
18456;DHT22;9357;49.900;8.208;2022-10-17T04:41:23;15.50;99.90
18456;DHT22;9357;49.900;8.208;2022-10-17T04:42:56;15.50;99.90
18456;DHT22;9357;49.900;8.208;2022-10-17T04:44:29;15.50;99.90
18456;DHT22;9357;49.900;8.208;2022-10-17T04:46:05;15.50;99.90
18456;DHT22;9357;49.900;8.208;2022-10-17T04:47:39;15.40;99.90
18456;DHT22;9357;49.900;8.208;2022-10-17T04:49:11;15.40;99.90
18456;DHT22;9357;49.900;8.208;2022-10-17T04:50:52;15.40;99.90
18456;DHT22;9357;49.900;8.208;2022-10-17T04:52:25;15.40;99.90
18456;DHT22;9357;49.900;8.208;2022-10-17T04:53:58;15.40;99.90
18456;DHT22;9357;49.900;8.208;2022-10-17T04:55:36;15.40;99.90
18456;DHT22;9357;49.900;8.208;2022-10-17T04:57:09;15.40;99.90
18456;DHT22;9357;49.900;8.208;2022-10-17T04:58:43;15.40;99.90
18456;DHT22;9357;49.900;8.208;2022-10-17T05:00:16;15.40;99.90
18456;DHT22;9357;49.900;8.208;2022-10-17T05:01:49;15.40;99.90
18456;DHT22;9357;49.900;8.208;2022-10-17T05:03:22;15.40;99.90
18456;DHT22;9357;49.900;8.208;2022-10-17T05:04:55;15.40;99.90
18456;DHT22;9357;49.900;8.208;2022-10-17T05:06:27;15.40;99.90
18456;DHT22;9357;49.900;8.208;2022-10-17T05:08:00;15.40;99.90
18456;DHT22;9357;49.900;8.208;2022-10-17T05:09:32;15.40;99.90
18456;DHT22;9357;49.900;8.208;2022-10-17T05:11:15;15.50;99.90
18456;DHT22;9357;49.900;8.208;2022-10-17T05:12:49;15.40;99.90
18456;DHT22;9357;49.900;8.208;2022-10-17T05:14:22;15.40;99.90
18456;DHT22;9357;49.900;8.208;2022-10-17T05:15:57;15.50;99.90
18456;DHT22;9357;49.900;8.208;2022-10-17T05:17:30;15.50;99.90
18456;DHT22;9357;49.900;8.208;2022-10-17T05:19:03;15.40;99.90
18456;DHT22;9357;49.900;8.208;2022-10-17T05:20:36;15.50;99.90
18456;DHT22;9357;49.900;8.208;2022-10-17T05:22:08;15.50;99.90
18456;DHT22;9357;49.900;8.208;2022-10-17T05:23:41;15.50;99.90
18456;DHT22;9357;49.900;8.208;2022-10-17T05:25:14;15.50;99.90
18456;DHT22;9357;49.900;8.208;2022-10-17T05:26:50;15.50;99.90
18456;DHT22;9357;49.900;8.208;2022-10-17T05:28:23;15.50;99.90
18456;DHT22;9357;49.900;8.208;2022-10-17T05:29:56;15.50;99.90
18456;DHT22;9357;49.900;8.208;2022-10-17T05:31:29;15.40;99.90
18456;DHT22;9357;49.900;8.208;2022-10-17T05:33:02;15.40;99.90
18456;DHT22;9357;49.900;8.208;2022-10-17T05:34:35;15.40;99.90
18456;DHT22;9357;49.900;8.208;2022-10-17T05:36:08;15.40;99.90
18456;DHT22;9357;49.900;8.208;2022-10-17T05:37:41;15.40;99.90
18456;DHT22;9357;49.900;8.208;2022-10-17T05:39:13;15.40;99.90
18456;DHT22;9357;49.900;8.208;2022-10-17T05:40:50;15.40;99.90
18456;DHT22;9357;49.900;8.208;2022-10-17T05:42:24;15.40;99.90
18456;DHT22;9357;49.900;8.208;2022-10-17T05:43:57;15.40;99.90
18456;DHT22;9357;49.900;8.208;2022-10-17T05:45:35;15.50;99.90
18456;DHT22;9357;49.900;8.208;2022-10-17T05:47:08;15.40;99.90
18456;DHT22;9357;49.900;8.208;2022-10-17T05:48:41;15.40;99.90
18456;DHT22;9357;49.900;8.208;2022-10-17T05:50:14;15.40;99.90
18456;DHT22;9357;49.900;8.208;2022-10-17T05:51:46;15.40;99.90
18456;DHT22;9357;49.900;8.208;2022-10-17T05:53:19;15.40;99.90
18456;DHT22;9357;49.900;8.208;2022-10-17T05:54:52;15.40;99.90
18456;DHT22;9357;49.900;8.208;2022-10-17T05:56:25;15.40;99.90
18456;DHT22;9357;49.900;8.208;2022-10-17T05:58:00;15.40;99.90
18456;DHT22;9357;49.900;8.208;2022-10-17T05:59:32;15.40;99.90
18456;DHT22;9357;49.900;8.208;2022-10-17T06:01:05;15.40;99.90
18456;DHT22;9357;49.900;8.208;2022-10-17T06:02:43;15.40;99.90
18456;DHT22;9357;49.900;8.208;2022-10-17T06:04:17;15.40;99.90
18456;DHT22;9357;49.900;8.208;2022-10-17T06:05:50;15.40;99.90
18456;DHT22;9357;49.900;8.208;2022-10-17T06:07:22;15.40;99.90
18456;DHT22;9357;49.900;8.208;2022-10-17T06:08:55;15.40;99.90
18456;DHT22;9357;49.900;8.208;2022-10-17T06:10:28;15.40;99.90
18456;DHT22;9357;49.900;8.208;2022-10-17T06:12:01;15.40;99.90
18456;DHT22;9357;49.900;8.208;2022-10-17T06:13:35;15.40;99.90
18456;DHT22;9357;49.900;8.208;2022-10-17T06:15:08;15.40;99.90
18456;DHT22;9357;49.900;8.208;2022-10-17T06:16:41;15.40;99.90
18456;DHT22;9357;49.900;8.208;2022-10-17T06:18:14;15.40;99.90
18456;DHT22;9357;49.900;8.208;2022-10-17T06:19:47;15.40;99.90
18456;DHT22;9357;49.900;8.208;2022-10-17T06:21:23;15.50;99.90
18456;DHT22;9357;49.900;8.208;2022-10-17T06:22:56;15.50;99.90
18456;DHT22;9357;49.900;8.208;2022-10-17T06:24:29;15.50;99.90
18456;DHT22;9357;49.900;8.208;2022-10-17T06:26:04;15.50;99.90
18456;DHT22;9357;49.900;8.208;2022-10-17T06:27:37;15.50;99.90
18456;DHT22;9357;49.900;8.208;2022-10-17T06:29:11;15.50;99.90
18456;DHT22;9357;49.900;8.208;2022-10-17T06:30:44;15.50;99.90
18456;DHT22;9357;49.900;8.208;2022-10-17T06:32:17;15.50;99.90
18456;DHT22;9357;49.900;8.208;2022-10-17T06:33:50;15.50;99.90
18456;DHT22;9357;49.900;8.208;2022-10-17T06:35:23;15.50;99.90
18456;DHT22;9357;49.900;8.208;2022-10-17T06:36:55;15.60;99.90
18456;DHT22;9357;49.900;8.208;2022-10-17T06:38:28;15.60;99.90
18456;DHT22;9357;49.900;8.208;2022-10-17T06:40:01;15.60;99.90
18456;DHT22;9357;49.900;8.208;2022-10-17T06:41:34;15.60;99.90
18456;DHT22;9357;49.900;8.208;2022-10-17T06:43:07;15.60;99.90
18456;DHT22;9357;49.900;8.208;2022-10-17T06:44:41;15.50;99.90
18456;DHT22;9357;49.900;8.208;2022-10-17T06:46:15;15.60;99.90
18456;DHT22;9357;49.900;8.208;2022-10-17T06:47:48;15.60;99.90
18456;DHT22;9357;49.900;8.208;2022-10-17T06:49:21;15.50;99.90
18456;DHT22;9357;49.900;8.208;2022-10-17T06:50:57;15.60;99.90
18456;DHT22;9357;49.900;8.208;2022-10-17T06:52:31;15.60;99.90
18456;DHT22;9357;49.900;8.208;2022-10-17T06:54:03;15.60;99.90
18456;DHT22;9357;49.900;8.208;2022-10-17T06:55:36;15.70;99.90
18456;DHT22;9357;49.900;8.208;2022-10-17T06:57:09;15.70;99.90
18456;DHT22;9357;49.900;8.208;2022-10-17T06:58:42;15.70;99.90
18456;DHT22;9357;49.900;8.208;2022-10-17T07:00:16;15.70;99.90
18456;DHT22;9357;49.900;8.208;2022-10-17T07:01:49;15.80;99.90
18456;DHT22;9357;49.900;8.208;2022-10-17T07:03:23;15.80;99.90
18456;DHT22;9357;49.900;8.208;2022-10-17T07:04:56;15.80;99.90
18456;DHT22;9357;49.900;8.208;2022-10-17T07:06:29;15.80;99.90
18456;DHT22;9357;49.900;8.208;2022-10-17T07:08:03;15.90;99.90
18456;DHT22;9357;49.900;8.208;2022-10-17T07:09:36;15.90;99.90
18456;DHT22;9357;49.900;8.208;2022-10-17T07:11:10;15.90;99.90
18456;DHT22;9357;49.900;8.208;2022-10-17T07:12:43;16.00;99.90
18456;DHT22;9357;49.900;8.208;2022-10-17T07:14:16;16.20;99.90
18456;DHT22;9357;49.900;8.208;2022-10-17T07:15:50;16.30;99.90
18456;DHT22;9357;49.900;8.208;2022-10-17T07:17:23;16.40;99.90
18456;DHT22;9357;49.900;8.208;2022-10-17T07:18:56;16.60;99.90
18456;DHT22;9357;49.900;8.208;2022-10-17T07:20:29;16.80;99.90
18456;DHT22;9357;49.900;8.208;2022-10-17T07:22:02;17.00;99.90
18456;DHT22;9357;49.900;8.208;2022-10-17T07:23:35;17.30;99.90
18456;DHT22;9357;49.900;8.208;2022-10-17T07:25:09;17.50;99.90
18456;DHT22;9357;49.900;8.208;2022-10-17T07:26:41;17.70;99.90
18456;DHT22;9357;49.900;8.208;2022-10-17T07:28:14;18.00;99.90
18456;DHT22;9357;49.900;8.208;2022-10-17T07:29:47;18.20;99.90
18456;DHT22;9357;49.900;8.208;2022-10-17T07:31:22;18.30;99.90
18456;DHT22;9357;49.900;8.208;2022-10-17T07:32:55;18.50;99.90
18456;DHT22;9357;49.900;8.208;2022-10-17T07:34:28;18.70;99.90
18456;DHT22;9357;49.900;8.208;2022-10-17T07:36:03;18.90;99.90
18456;DHT22;9357;49.900;8.208;2022-10-17T07:37:36;19.10;99.90
18456;DHT22;9357;49.900;8.208;2022-10-17T07:39:09;19.30;99.90
18456;DHT22;9357;49.900;8.208;2022-10-17T07:40:42;19.50;99.90
18456;DHT22;9357;49.900;8.208;2022-10-17T07:42:15;19.70;99.90
18456;DHT22;9357;49.900;8.208;2022-10-17T07:43:48;19.90;99.90
18456;DHT22;9357;49.900;8.208;2022-10-17T07:45:21;20.10;99.90
18456;DHT22;9357;49.900;8.208;2022-10-17T07:46:56;20.20;99.90
18456;DHT22;9357;49.900;8.208;2022-10-17T07:48:29;20.30;99.90
18456;DHT22;9357;49.900;8.208;2022-10-17T07:50:02;20.40;99.90
18456;DHT22;9357;49.900;8.208;2022-10-17T07:51:35;20.50;99.90
18456;DHT22;9357;49.900;8.208;2022-10-17T07:53:08;20.50;99.90
18456;DHT22;9357;49.900;8.208;2022-10-17T07:54:41;20.50;99.90
18456;DHT22;9357;49.900;8.208;2022-10-17T07:56:14;20.50;99.90
18456;DHT22;9357;49.900;8.208;2022-10-17T07:57:46;20.50;99.90
18456;DHT22;9357;49.900;8.208;2022-10-17T07:59:19;20.50;99.90
18456;DHT22;9357;49.900;8.208;2022-10-17T08:00:52;20.40;99.90
18456;DHT22;9357;49.900;8.208;2022-10-17T08:02:26;20.40;99.90
18456;DHT22;9357;49.900;8.208;2022-10-17T08:04:00;20.30;99.90
18456;DHT22;9357;49.900;8.208;2022-10-17T08:05:33;20.30;99.90
18456;DHT22;9357;49.900;8.208;2022-10-17T08:07:06;20.30;99.90
18456;DHT22;9357;49.900;8.208;2022-10-17T08:08:51;20.40;99.90
18456;DHT22;9357;49.900;8.208;2022-10-17T08:10:24;20.40;99.90
18456;DHT22;9357;49.900;8.208;2022-10-17T08:11:59;20.50;99.90
18456;DHT22;9357;49.900;8.208;2022-10-17T08:13:32;20.50;99.90
18456;DHT22;9357;49.900;8.208;2022-10-17T08:15:07;20.60;99.90
18456;DHT22;9357;49.900;8.208;2022-10-17T08:16:40;20.60;99.90
18456;DHT22;9357;49.900;8.208;2022-10-17T08:18:14;20.60;99.90
18456;DHT22;9357;49.900;8.208;2022-10-17T08:19:48;20.60;99.90
18456;DHT22;9357;49.900;8.208;2022-10-17T08:21:21;20.60;99.90
18456;DHT22;9357;49.900;8.208;2022-10-17T08:22:54;20.70;99.90
18456;DHT22;9357;49.900;8.208;2022-10-17T08:24:27;20.60;99.90
18456;DHT22;9357;49.900;8.208;2022-10-17T08:26:01;20.60;99.90
18456;DHT22;9357;49.900;8.208;2022-10-17T08:27:34;20.60;99.90
18456;DHT22;9357;49.900;8.208;2022-10-17T08:29:11;20.60;99.90
18456;DHT22;9357;49.900;8.208;2022-10-17T08:30:44;20.60;99.90
18456;DHT22;9357;49.900;8.208;2022-10-17T08:32:17;20.60;99.90
18456;DHT22;9357;49.900;8.208;2022-10-17T08:33:51;20.50;99.90
18456;DHT22;9357;49.900;8.208;2022-10-17T08:35:24;20.50;99.90
18456;DHT22;9357;49.900;8.208;2022-10-17T08:36:57;20.40;99.90
18456;DHT22;9357;49.900;8.208;2022-10-17T08:38:31;20.40;99.90
18456;DHT22;9357;49.900;8.208;2022-10-17T08:40:09;20.30;99.90
18456;DHT22;9357;49.900;8.208;2022-10-17T08:41:59;20.40;99.90
18456;DHT22;9357;49.900;8.208;2022-10-17T08:43:44;20.40;99.90
18456;DHT22;9357;49.900;8.208;2022-10-17T08:45:23;20.40;99.90
18456;DHT22;9357;49.900;8.208;2022-10-17T08:47:02;20.40;99.90
18456;DHT22;9357;49.900;8.208;2022-10-17T08:48:39;20.50;99.90
18456;DHT22;9357;49.900;8.208;2022-10-17T08:50:24;20.40;99.90
18456;DHT22;9357;49.900;8.208;2022-10-17T08:52:03;20.40;99.90
18456;DHT22;9357;49.900;8.208;2022-10-17T08:53:40;20.40;99.90
18456;DHT22;9357;49.900;8.208;2022-10-17T08:55:17;20.40;99.90
18456;DHT22;9357;49.900;8.208;2022-10-17T08:56:56;20.40;99.90
18456;DHT22;9357;49.900;8.208;2022-10-17T08:58:32;20.50;99.90
18456;DHT22;9357;49.900;8.208;2022-10-17T09:00:13;20.50;99.90
18456;DHT22;9357;49.900;8.208;2022-10-17T09:01:49;20.50;99.90
18456;DHT22;9357;49.900;8.208;2022-10-17T09:03:41;20.60;99.90
18456;DHT22;9357;49.900;8.208;2022-10-17T09:05:29;20.70;99.90
18456;DHT22;9357;49.900;8.208;2022-10-17T09:07:08;20.80;99.90
18456;DHT22;9357;49.900;8.208;2022-10-17T09:08:48;20.70;99.90
18456;DHT22;9357;49.900;8.208;2022-10-17T09:10:32;20.70;99.90
18456;DHT22;9357;49.900;8.208;2022-10-17T09:12:16;20.60;99.90
18456;DHT22;9357;49.900;8.208;2022-10-17T09:13:59;20.60;99.90
18456;DHT22;9357;49.900;8.208;2022-10-17T09:15:42;20.60;99.90
18456;DHT22;9357;49.900;8.208;2022-10-17T09:17:26;20.70;99.90
18456;DHT22;9357;49.900;8.208;2022-10-17T09:19:09;20.80;99.90
18456;DHT22;9357;49.900;8.208;2022-10-17T09:20:48;21.00;99.90
18456;DHT22;9357;49.900;8.208;2022-10-17T09:22:24;21.10;99.90
18456;DHT22;9357;49.900;8.208;2022-10-17T09:24:02;21.20;99.90
18456;DHT22;9357;49.900;8.208;2022-10-17T09:25:42;21.30;99.90
18456;DHT22;9357;49.900;8.208;2022-10-17T09:27:23;21.40;99.90
18456;DHT22;9357;49.900;8.208;2022-10-17T09:28:58;21.50;99.90
18456;DHT22;9357;49.900;8.208;2022-10-17T09:30:35;21.60;99.90
18456;DHT22;9357;49.900;8.208;2022-10-17T09:32:20;21.70;99.90
18456;DHT22;9357;49.900;8.208;2022-10-17T09:33:56;21.80;99.90
18456;DHT22;9357;49.900;8.208;2022-10-17T09:35:29;21.80;99.90
18456;DHT22;9357;49.900;8.208;2022-10-17T09:37:10;21.80;99.90
18456;DHT22;9357;49.900;8.208;2022-10-17T09:38:47;21.90;99.90
18456;DHT22;9357;49.900;8.208;2022-10-17T09:40:23;21.90;99.90
18456;DHT22;9357;49.900;8.208;2022-10-17T09:41:58;22.00;99.90
18456;DHT22;9357;49.900;8.208;2022-10-17T09:43:31;22.20;99.90
18456;DHT22;9357;49.900;8.208;2022-10-17T09:45:14;22.20;99.90
18456;DHT22;9357;49.900;8.208;2022-10-17T09:47:00;22.40;99.90
18456;DHT22;9357;49.900;8.208;2022-10-17T09:48:37;22.60;99.90
18456;DHT22;9357;49.900;8.208;2022-10-17T09:50:15;22.70;99.90
18456;DHT22;9357;49.900;8.208;2022-10-17T09:51:50;22.80;99.90
18456;DHT22;9357;49.900;8.208;2022-10-17T09:53:26;22.80;99.90
18456;DHT22;9357;49.900;8.208;2022-10-17T09:55:05;22.90;99.90
18456;DHT22;9357;49.900;8.208;2022-10-17T09:56:57;23.00;99.90
18456;DHT22;9357;49.900;8.208;2022-10-17T09:58:40;23.10;99.90
18456;DHT22;9357;49.900;8.208;2022-10-17T10:00:20;23.10;99.90
18456;DHT22;9357;49.900;8.208;2022-10-17T10:02:06;23.20;99.90
18456;DHT22;9357;49.900;8.208;2022-10-17T10:03:39;23.20;99.90
18456;DHT22;9357;49.900;8.208;2022-10-17T10:05:15;23.30;99.90
18456;DHT22;9357;49.900;8.208;2022-10-17T10:07:01;23.40;99.90
18456;DHT22;9357;49.900;8.208;2022-10-17T10:08:46;23.50;99.90
18456;DHT22;9357;49.900;8.208;2022-10-17T10:10:25;23.60;99.90
18456;DHT22;9357;49.900;8.208;2022-10-17T10:12:01;23.60;99.90